createdAt,value
2023-01-30T00:02:12.003Z,45.63
2023-01-30T00:07:13.800Z,68.27
2023-01-30T00:12:22.012Z,55.07
2023-01-30T00:17:28.947Z,45.20
2023-01-30T00:22:31.053Z,44.00
2023-01-30T00:27:35.703Z,59.37
2023-01-30T00:32:40.187Z,42.03
2023-01-30T00:37:41.827Z,41.30
2023-01-30T00:43:06.854Z,42.77
2023-01-30T00:48:13.867Z,37.77
2023-01-30T00:53:16.534Z,37.37
2023-01-30T00:58:22.673Z,51.83
2023-01-30T01:03:24.400Z,46.03
2023-01-30T01:08:26.166Z,45.63
2023-01-30T01:13:30.832Z,58.20
2023-01-30T01:18:37.139Z,39.03
2023-01-30T01:23:39.047Z,38.63
2023-01-30T01:28:40.702Z,45.33
2023-01-30T01:33:49.072Z,41.17
2023-01-30T01:38:50.788Z,23.30
2023-01-30T01:44:04.858Z,44.80
2023-01-30T01:49:16.388Z,27.80
2023-01-30T01:54:32.989Z,28.00
2023-01-30T01:59:43.707Z,26.80
2023-01-30T02:05:04.996Z,26.07
2023-01-30T02:10:13.421Z,19.70
2023-01-30T02:15:18.499Z,15.47
2023-01-30T02:20:53.819Z,5.80
2023-01-30T02:26:01.849Z,8.70
2023-01-30T02:31:18.430Z,15.57
2023-01-30T02:36:28.620Z,14.03
2023-01-30T02:41:36.479Z,18.90
2023-01-30T02:46:44.337Z,16.37
2023-01-30T02:51:52.374Z,20.57
2023-01-30T02:56:57.986Z,20.50
2023-01-30T03:02:35.768Z,10.47
2023-01-30T03:07:54.497Z,17.57
2023-01-30T03:13:03.104Z,11.80
2023-01-30T03:18:05.705Z,19.53
2023-01-30T03:23:08.003Z,19.33
2023-01-30T03:28:15.149Z,21.87
2023-01-30T03:33:19.397Z,16.10
2023-01-30T03:38:25.368Z,19.97
2023-01-30T03:43:28.906Z,17.23
2023-01-30T03:48:30.688Z,15.10
2023-01-30T03:53:32.424Z,18.60
2023-01-30T03:58:34.211Z,15.07
2023-01-30T04:03:50.518Z,22.90
2023-01-30T04:08:53.778Z,15.97
2023-01-30T04:14:09.988Z,24.17
2023-01-30T04:19:24.835Z,33.00
2023-01-30T04:24:29.663Z,30.70
2023-01-30T04:29:31.739Z,23.67
2023-01-30T04:34:36.836Z,25.53
2023-01-30T04:39:43.439Z,31.23
2023-01-30T04:44:45.313Z,38.37
2023-01-30T04:49:51.715Z,37.47
2023-01-30T04:54:55.805Z,37.43
2023-01-30T05:00:00.259Z,20.37
2023-01-30T05:05:02.944Z,28.67
2023-01-30T05:10:05.268Z,19.97
2023-01-30T05:15:07.668Z,27.00
2023-01-30T05:20:15.221Z,23.83
2023-01-30T05:25:17.357Z,26.00
2023-01-30T05:30:21.793Z,44.93
2023-01-30T05:35:25.840Z,67.53
2023-01-30T05:40:29.857Z,59.57
2023-01-30T05:45:33.751Z,55.03
2023-01-30T05:50:40.210Z,69.57
2023-01-30T05:55:43.732Z,55.70
2023-01-30T06:00:47.678Z,58.73
2023-01-30T06:05:58.480Z,65.00
2023-01-30T06:11:09.078Z,36.50
2023-01-30T06:16:17.279Z,39.73
2023-01-30T06:21:22.901Z,62.30
2023-01-30T06:26:26.719Z,40.43
2023-01-30T06:31:33.560Z,44.03
2023-01-30T06:36:35.326Z,38.87
2023-01-30T06:41:41.959Z,42.07
2023-01-30T06:46:48.151Z,40.93
2023-01-30T06:51:49.848Z,47.33
2023-01-30T06:56:51.869Z,40.10
2023-01-30T07:01:56.236Z,46.87
2023-01-30T07:07:00.319Z,39.17
2023-01-30T07:12:04.648Z,44.37
2023-01-30T07:17:06.508Z,41.33
2023-01-30T07:22:10.603Z,35.53
2023-01-30T07:27:13.099Z,38.73
2023-01-30T07:32:18.515Z,53.57
2023-01-30T07:37:20.237Z,41.03
2023-01-30T07:42:24.417Z,38.73
2023-01-30T07:47:30.956Z,50.13
2023-01-30T07:52:34.907Z,35.77
2023-01-30T07:57:38.263Z,47.17
2023-01-30T08:02:39.928Z,40.77
2023-01-30T08:07:47.427Z,35.97
2023-01-30T08:12:52.016Z,41.40
2023-01-30T08:17:57.046Z,28.37
2023-01-30T08:23:02.331Z,45.43
2023-01-30T08:28:07.217Z,26.73
2023-01-30T08:33:16.416Z,43.00
2023-01-30T08:38:18.796Z,46.47
2023-01-30T08:43:21.055Z,41.73
2023-01-30T08:48:24.031Z,25.50
2023-01-30T08:53:27.974Z,40.67
2023-01-30T08:58:29.700Z,41.30
2023-01-30T09:03:32.810Z,27.37
2023-01-30T09:08:37.457Z,36.37
2023-01-30T09:13:43.513Z,21.20
2023-01-30T09:18:45.481Z,30.10
2023-01-30T09:23:49.614Z,20.20
2023-01-30T09:28:53.685Z,34.17
2023-01-30T09:33:55.433Z,31.00
2023-01-30T09:38:57.144Z,28.57
2023-01-30T09:43:59.567Z,42.63
2023-01-30T09:49:32.438Z,23.50
2023-01-30T09:54:37.037Z,36.17
2023-01-30T09:59:48.405Z,35.87
2023-01-30T10:05:01.387Z,40.23
2023-01-30T10:10:21.902Z,43.20
2023-01-30T10:16:03.930Z,48.00
2023-01-30T10:21:23.843Z,37.30
2023-01-30T10:26:28.716Z,8.17
2023-01-30T10:31:37.339Z,10.30
2023-01-30T10:37:05.107Z,13.90
2023-01-30T10:42:14.563Z,23.67
2023-01-30T10:47:53.974Z,33.33
2023-01-30T10:53:11.834Z,27.93
2023-01-30T10:58:35.944Z,33.77
2023-01-30T11:03:57.243Z,13.70
2023-01-30T11:09:02.336Z,19.43
2023-01-30T11:14:08.389Z,26.27
2023-01-30T11:19:20.779Z,30.13
2023-01-30T11:24:33.574Z,40.77
2023-01-30T11:29:44.381Z,45.43
2023-01-30T11:35:22.295Z,49.57
2023-01-30T11:40:27.976Z,47.87
2023-01-30T11:45:33.743Z,38.93
2023-01-30T11:50:45.360Z,24.93
2023-01-30T11:56:05.429Z,13.73
2023-01-30T12:01:11.220Z,19.57
2023-01-30T12:06:22.504Z,24.53
2023-01-30T12:11:44.792Z,26.97
2023-01-30T12:16:46.489Z,25.97
2023-01-30T12:22:04.778Z,26.13
2023-01-30T12:27:23.740Z,31.20
2023-01-30T12:32:32.198Z,31.63
2023-01-30T12:37:46.161Z,23.00
2023-01-30T12:43:06.664Z,32.03
2023-01-30T12:48:13.939Z,37.40
2023-01-30T12:53:48.200Z,37.60
2023-01-30T12:59:15.880Z,27.90
2023-01-30T13:04:23.609Z,32.93
2023-01-30T13:09:58.679Z,37.10
2023-01-30T13:15:10.238Z,41.60
2023-01-30T13:20:18.130Z,36.83
2023-01-30T13:25:42.932Z,35.43
2023-01-30T13:30:51.941Z,34.30
2023-01-30T13:36:09.039Z,42.77
2023-01-30T13:41:17.622Z,39.10
2023-01-30T13:46:26.931Z,38.00
2023-01-30T13:52:10.219Z,46.90
2023-01-30T13:57:44.077Z,49.73
2023-01-30T14:03:06.106Z,50.13
2023-01-30T14:08:12.646Z,58.80
2023-01-30T14:13:17.729Z,44.07
2023-01-30T14:18:36.273Z,46.10
2023-01-30T14:23:42.009Z,40.23
2023-01-30T14:28:47.554Z,24.90
2023-01-30T14:33:50.516Z,44.60
2023-01-30T14:39:38.902Z,33.13
2023-01-30T14:45:02.931Z,35.77
2023-01-30T14:50:22.276Z,35.30
2023-01-30T14:55:29.589Z,40.37
2023-01-30T15:00:36.790Z,35.77
2023-01-30T15:05:44.104Z,37.03
2023-01-30T15:11:06.459Z,21.93
2023-01-30T15:16:33.864Z,34.70
2023-01-30T15:21:46.679Z,28.73
2023-01-30T15:27:00.105Z,38.27
2023-01-30T15:32:15.166Z,43.93
2023-01-30T15:37:38.889Z,35.63
2023-01-30T15:43:01.183Z,28.13
2023-01-30T15:48:28.608Z,29.57
2023-01-30T15:53:41.323Z,23.60
2023-01-30T15:58:47.442Z,36.50
2023-01-30T16:03:57.866Z,28.80
2023-01-30T16:09:08.376Z,32.47
2023-01-30T16:14:20.151Z,29.13
2023-01-30T16:19:26.564Z,19.47
2023-01-30T16:24:33.293Z,29.07
2023-01-30T16:29:51.106Z,29.93
2023-01-30T16:35:27.208Z,27.33
2023-01-30T16:40:43.320Z,27.03
2023-01-30T16:45:54.569Z,39.67
2023-01-30T16:50:59.458Z,26.57
2023-01-30T16:56:04.286Z,35.30
2023-01-30T17:01:08.091Z,39.43
2023-01-30T17:06:35.890Z,40.97
2023-01-30T17:11:43.162Z,42.57
2023-01-30T17:16:46.252Z,39.27
2023-01-30T17:21:51.660Z,29.93
2023-01-30T17:26:59.068Z,33.43
2023-01-30T17:32:08.857Z,32.03
2023-01-30T17:37:23.020Z,33.90
2023-01-30T17:42:27.054Z,38.30
2023-01-30T17:47:29.067Z,39.33
2023-01-30T17:52:30.764Z,36.57
2023-01-30T17:57:34.835Z,37.90
2023-01-30T18:02:36.652Z,32.87
2023-01-30T18:07:39.318Z,28.80
2023-01-30T18:12:45.502Z,26.00
2023-01-30T18:17:50.704Z,28.67
2023-01-30T18:22:54.964Z,35.83
2023-01-30T18:27:59.140Z,33.33
2023-01-30T18:33:00.963Z,42.30
2023-01-30T18:43:29.269Z,43.10
2023-01-30T18:48:34.455Z,38.47
2023-01-30T18:53:39.625Z,36.57
2023-01-30T18:58:42.033Z,32.10
2023-01-30T19:03:53.165Z,25.40
2023-01-30T19:08:57.833Z,30.03
2023-01-30T19:14:02.130Z,27.83
2023-01-30T19:19:05.073Z,32.70
2023-01-30T19:24:10.858Z,27.63
2023-01-30T19:29:12.816Z,29.67
2023-01-30T19:34:17.789Z,27.70
2023-01-30T19:39:25.302Z,33.77
2023-01-30T19:44:27.179Z,34.27
2023-01-30T19:49:46.496Z,41.67
2023-01-30T19:54:48.491Z,33.27
2023-01-30T19:59:50.492Z,40.70
2023-01-30T20:04:52.301Z,51.87
2023-01-30T20:09:57.055Z,40.43
2023-01-30T20:14:59.220Z,39.93
2023-01-30T20:20:01.079Z,43.87
2023-01-30T20:25:03.765Z,42.13
2023-01-30T20:30:08.401Z,34.50
2023-01-30T20:35:19.963Z,40.23
2023-01-30T20:40:21.980Z,32.27
2023-01-30T20:45:24.184Z,34.17
2023-01-30T20:50:27.544Z,33.60
2023-01-30T20:55:31.760Z,39.03
2023-01-30T21:00:37.060Z,44.37
2023-01-30T21:05:39.397Z,34.37
2023-01-30T21:10:46.686Z,38.67
2023-01-30T21:16:01.947Z,35.53
2023-01-30T21:21:05.950Z,42.27
2023-01-30T21:26:11.542Z,32.10
2023-01-30T21:31:17.900Z,36.67
2023-01-30T21:36:19.700Z,31.10
2023-01-30T21:41:50.944Z,39.20
2023-01-30T21:46:57.200Z,37.83
2023-01-30T21:51:59.133Z,37.53
2023-01-30T21:57:00.838Z,33.53
2023-01-30T22:02:03.583Z,37.23
2023-01-30T22:07:07.679Z,24.67
2023-01-30T22:12:14.693Z,33.57
2023-01-30T22:17:19.927Z,42.33
2023-01-30T22:22:27.009Z,34.53
2023-01-30T22:27:29.747Z,33.60
2023-01-30T22:32:31.706Z,34.47
2023-01-30T22:37:39.504Z,38.73
2023-01-30T22:42:50.558Z,35.70
2023-01-30T22:47:56.943Z,36.63
2023-01-30T22:53:00.772Z,34.53
2023-01-30T22:58:07.847Z,31.10
2023-01-30T23:03:11.928Z,32.00
2023-01-30T23:08:15.739Z,35.00
2023-01-30T23:13:19.801Z,37.87
2023-01-30T23:18:45.607Z,29.10
2023-01-30T23:23:47.517Z,32.63
2023-01-30T23:28:49.653Z,33.43
2023-01-30T23:33:55.660Z,42.00
2023-01-30T23:38:58.941Z,36.77
2023-01-30T23:44:01.178Z,30.13
2023-01-30T23:49:15.476Z,35.97
2023-01-30T23:54:19.706Z,37.67
2023-01-30T23:59:21.912Z,31.00
